Sunday, April 22, 2018, 12:41 AM GMT
Back to Local

CYMX, Montreal / Mirabel

Location: , , Canada Lat: 45.683
Local Time: 12:41 AM GMT ( 0:41 GMT) Lon: -74.033
Time Zone: GMT Elev: 269 ft

Show me the last for .
Show Decoded

2018-04-22 00:00 METAR CYMX 220000Z 28004KT 250V340 45SM FEW050 08/M09 A3030 RMK SC1 SC TR SLP265
                 =
2018-04-21 23:00 METAR CYMX 212300Z 31007KT 45SM FEW050 10/M09 A3028 RMK CF1 CF TR SLP260 =
2018-04-21 22:00 METAR CYMX 212200Z 32009G17KT 45SM FEW050 11/M10 A3027 RMK CF1 CF TR SLP255 =
2018-04-21 21:00 METAR CYMX 212100Z 33011G17KT 250V350 45SM FEW050 11/M10 A3027 RMK CF1 CF TR
                 SLP254 =
2018-04-21 20:00 METAR CYMX 212000Z 30007G18KT 270V330 45SM FEW050 11/M09 A3027 RMK CF1 CF TR
                 SLP253 =
2018-04-21 19:00 METAR CYMX 211900Z 32007G15KT 260V340 45SM FEW050 11/M08 A3027 RMK CF1 CF TR
                 SLP256 =
2018-04-21 18:00 METAR CYMX 211800Z 28008G16KT 220V340 45SM FEW050 11/M07 A3029 RMK CF1 CF TR
                 SLP262 =
2018-04-21 17:00 METAR CYMX 211700Z 32013G19KT 270V340 45SM FEW050 10/M07 A3030 RMK CF1 CF TR
                 SLP267 =
2018-04-21 16:00 METAR CYMX 211600Z 25008KT 210V310 45SM FEW050 08/M06 A3032 RMK CF1 CF TR SLP273
                 =
2018-04-21 15:00 METAR CYMX 211500Z 24004KT 200V330 45SM FEW030 07/M05 A3034 RMK CF1 CF TR SLP278
                 =
2018-04-21 14:00 METAR CYMX 211400Z 33005KT 310V060 45SM FEW030 07/M06 A3034 RMK CF1 CF TR SLP280
                 =
2018-04-21 13:00 METAR CYMX 211300Z 34006KT 50SM SKC 06/M06 A3034 RMK SLP280 =
2018-04-21 12:00 METAR CYMX 211200Z 32007KT 45SM FEW060 FEW260 03/M05 A3033 RMK SC1CI1 SC TR CI
                 TR SLP277 =
2018-04-21 11:00 METAR CYMX 211100Z 31003KT 45SM FEW060 00/M06 A3033 RMK SC1 SLP275 =
2018-04-21 10:00 METAR CYMX 211000Z 31003KT 25SM FEW060 M00/M06 A3031 RMK SC1 SLP270 =
2018-04-21 09:00 METAR CYMX 210900Z 28003KT 25SM FEW060 00/M06 A3031 RMK SC1 SC TR SLP268 =
2018-04-21 08:00 METAR CYMX 210800Z 29004KT 260V320 25SM FEW060 00/M06 A3031 RMK SC1 SC TR SLP270
                 =
2018-04-21 07:00 METAR CYMX 210700Z 27004KT 25SM FEW060 M01/M05 A3031 RMK SC2 SLP269 =
2018-04-21 06:00 METAR CYMX 210600Z 26004KT 25SM SCT060 01/M05 A3030 RMK SC4 SLP265 =
2018-04-21 05:00 METAR CYMX 210500Z 29002KT 25SM BKN061 01/M05 A3030 RMK SC7 SLP265 =
2018-04-21 04:00 METAR CYMX 210400Z 00000KT 25SM BKN063 03/M05 A3029 RMK SC7 SLP263 =
2018-04-21 03:00 METAR CYMX 210300Z 06006KT 290V090 25SM BKN065 03/M05 A3029 RMK SC7 SLP262 =
2018-04-21 02:00 METAR CYMX 210200Z VRB02KT 25SM BKN073 05/M05 A3028 RMK AC7 SLP259 =
2018-04-21 01:00 METAR CYMX 210100Z 27003KT 230V310 25SM BKN072 06/M05 A3027 RMK AC7 SLP256 =

Support USWX by starting your Amazon purchase here.